createdAt,value
2018-12-04T00:00:11.776Z,995.90
2018-12-04T00:01:11.761Z,995.87
2018-12-04T00:02:11.760Z,995.88
2018-12-04T00:03:11.731Z,995.87
2018-12-04T00:04:11.734Z,995.84
2018-12-04T00:05:11.727Z,995.87
2018-12-04T00:06:11.711Z,995.86
2018-12-04T00:07:11.699Z,995.89
2018-12-04T00:08:11.733Z,995.86
2018-12-04T00:09:11.674Z,995.87
2018-12-04T00:10:11.674Z,995.90
2018-12-04T00:11:11.655Z,995.83
2018-12-04T00:12:11.647Z,995.89
2018-12-04T00:13:11.635Z,995.92
2018-12-04T00:14:11.629Z,995.94
2018-12-04T00:15:11.633Z,996.01
2018-12-04T00:16:11.603Z,995.93
2018-12-04T00:17:11.591Z,995.97
2018-12-04T00:18:11.582Z,996.02
2018-12-04T00:19:11.577Z,995.98
2018-12-04T00:20:11.568Z,996.02
2018-12-04T00:21:11.568Z,996.04
2018-12-04T00:22:11.545Z,996.06
2018-12-04T00:23:11.526Z,996.05
2018-12-04T00:24:11.519Z,995.96
2018-12-04T00:25:11.525Z,996.05
2018-12-04T00:26:11.499Z,996.05
2018-12-04T00:27:11.480Z,996.06
2018-12-04T00:28:11.470Z,996.09
2018-12-04T00:29:11.461Z,996.07
2018-12-04T00:30:11.470Z,996.05
2018-12-04T00:31:11.446Z,996.07
2018-12-04T00:32:11.429Z,996.08
2018-12-04T00:33:11.423Z,996.11
2018-12-04T00:34:11.411Z,996.15
2018-12-04T00:35:11.408Z,996.14
2018-12-04T00:36:11.391Z,996.21
2018-12-04T00:37:11.376Z,996.24
2018-12-04T00:38:11.363Z,996.25
2018-12-04T00:39:11.351Z,996.27
2018-12-04T00:40:11.371Z,996.25
2018-12-04T00:41:11.335Z,996.24
2018-12-04T00:42:11.356Z,996.31
2018-12-04T00:43:11.310Z,996.24
2018-12-04T00:44:11.305Z,996.25
2018-12-04T00:45:11.296Z,996.25
2018-12-04T00:46:11.303Z,996.28
2018-12-04T00:47:11.274Z,996.27
2018-12-04T00:48:11.258Z,996.28
2018-12-04T00:49:11.252Z,996.28
2018-12-04T00:50:11.245Z,996.29
2018-12-04T00:51:11.241Z,996.25
2018-12-04T00:52:11.219Z,996.36
2018-12-04T00:53:11.216Z,996.32
2018-12-04T00:54:11.199Z,996.37
2018-12-04T00:55:11.188Z,996.36
2018-12-04T00:56:11.197Z,996.39
2018-12-04T00:57:11.168Z,996.43
2018-12-04T00:58:11.170Z,996.44
2018-12-04T00:59:11.146Z,996.50
2018-12-04T01:00:11.138Z,996.55
2018-12-04T01:01:11.143Z,996.54
2018-12-04T01:02:11.118Z,996.54
2018-12-04T01:03:11.110Z,996.54
2018-12-04T01:04:11.091Z,996.58
2018-12-04T01:05:11.090Z,996.56
2018-12-04T01:06:11.091Z,996.59
2018-12-04T01:07:11.065Z,996.58
2018-12-04T01:08:11.058Z,996.58
2018-12-04T01:09:11.050Z,996.61
2018-12-04T01:10:11.043Z,996.60
2018-12-04T01:11:11.035Z,996.62
2018-12-04T01:12:11.011Z,996.64
2018-12-04T01:13:11.008Z,996.64
2018-12-04T01:14:10.992Z,996.65
2018-12-04T01:15:10.976Z,996.64
2018-12-04T01:16:10.989Z,996.60
2018-12-04T01:17:10.963Z,996.65
2018-12-04T01:18:10.953Z,996.59
2018-12-04T01:19:10.944Z,996.58
2018-12-04T01:20:10.930Z,996.63
2018-12-04T01:21:10.937Z,996.61
2018-12-04T01:22:10.907Z,996.60
2018-12-04T01:23:10.898Z,996.61
2018-12-04T01:24:10.891Z,996.61
2018-12-04T01:25:10.898Z,996.67
2018-12-04T01:26:10.890Z,996.61
2018-12-04T01:27:10.861Z,996.65
2018-12-04T01:28:10.877Z,996.63
2018-12-04T01:29:10.835Z,996.65
2018-12-04T01:30:10.823Z,996.70
2018-12-04T01:31:10.831Z,996.68
2018-12-04T01:32:10.805Z,996.74
2018-12-04T01:33:10.793Z,996.70
2018-12-04T01:34:10.785Z,996.75
2018-12-04T01:35:10.789Z,996.72
2018-12-04T01:36:10.783Z,996.73
2018-12-04T01:37:10.752Z,996.73
2018-12-04T01:38:10.783Z,996.74
2018-12-04T01:39:10.732Z,996.79
2018-12-04T01:40:10.730Z,996.73
2018-12-04T01:41:10.730Z,996.74
2018-12-04T01:42:10.701Z,996.73
2018-12-04T01:43:10.694Z,996.76
2018-12-04T01:44:10.680Z,996.74
2018-12-04T01:45:10.671Z,996.81
2018-12-04T01:46:10.680Z,996.72
2018-12-04T01:47:10.649Z,996.67
2018-12-04T01:48:10.652Z,996.63
2018-12-04T01:49:10.632Z,996.69
2018-12-04T01:50:10.628Z,996.68
2018-12-04T01:51:10.627Z,996.69
2018-12-04T01:52:10.603Z,996.72
2018-12-04T01:53:10.617Z,996.73
2018-12-04T01:54:10.579Z,996.80
2018-12-04T01:55:10.567Z,996.73
2018-12-04T01:56:10.595Z,996.70
2018-12-04T01:57:10.549Z,996.68
2018-12-04T01:58:10.545Z,996.68
2018-12-04T01:59:10.533Z,996.73
2018-12-04T02:00:10.521Z,996.71
2018-12-04T02:01:10.516Z,996.74
2018-12-04T02:02:10.512Z,996.79
2018-12-04T02:03:10.486Z,996.83
2018-12-04T02:04:10.475Z,996.82
2018-12-04T02:05:10.468Z,996.84
2018-12-04T02:06:10.454Z,996.86
2018-12-04T02:07:10.465Z,996.82
2018-12-04T02:08:10.435Z,996.84
2018-12-04T02:09:10.424Z,996.77
2018-12-04T02:10:10.416Z,996.76
2018-12-04T02:11:10.416Z,996.76
2018-12-04T02:12:10.413Z,996.78
2018-12-04T02:13:10.387Z,996.76
2018-12-04T02:14:10.376Z,996.82
2018-12-04T02:15:10.364Z,996.79
2018-12-04T02:16:10.354Z,996.81
2018-12-04T02:17:10.375Z,996.81
2018-12-04T02:18:10.338Z,996.80
2018-12-04T02:19:10.322Z,996.84
2018-12-04T02:20:10.318Z,996.83
2018-12-04T02:21:10.305Z,996.85
2018-12-04T02:22:10.303Z,996.88
2018-12-04T02:23:10.297Z,996.85
2018-12-04T02:24:10.273Z,996.85
2018-12-04T02:25:10.263Z,996.92
2018-12-04T02:26:10.254Z,996.96
2018-12-04T02:27:10.253Z,996.94
2018-12-04T02:28:10.238Z,996.94
2018-12-04T02:29:10.228Z,996.90
2018-12-04T02:30:10.213Z,996.95
2018-12-04T02:31:10.305Z,996.95
2018-12-04T02:32:10.210Z,997.00
2018-12-04T02:33:10.185Z,996.96
2018-12-04T02:34:10.179Z,997.01
2018-12-04T02:35:10.165Z,996.98
2018-12-04T02:36:10.155Z,997.01
2018-12-04T02:37:10.166Z,997.03
2018-12-04T02:38:10.128Z,997.09
2018-12-04T02:39:10.126Z,997.12
2018-12-04T02:40:10.117Z,997.18
2018-12-04T02:41:10.101Z,997.16
2018-12-04T02:42:10.104Z,997.23
2018-12-04T02:43:10.075Z,997.20
2018-12-04T02:44:10.075Z,997.25
2018-12-04T02:45:10.071Z,997.26
2018-12-04T02:46:10.046Z,997.28
2018-12-04T02:47:10.058Z,997.27
2018-12-04T02:48:10.036Z,997.28
2018-12-04T02:49:10.018Z,997.32
2018-12-04T02:50:10.017Z,997.29
2018-12-04T02:51:10.001Z,997.33
2018-12-04T02:52:10.004Z,997.42
2018-12-04T02:53:09.972Z,997.38
2018-12-04T02:54:09.973Z,997.46
2018-12-04T02:55:09.953Z,997.40
2018-12-04T02:56:09.945Z,997.44
2018-12-04T02:57:09.951Z,997.44
2018-12-04T02:58:09.923Z,997.36
2018-12-04T02:59:09.927Z,997.43
2018-12-04T03:00:09.904Z,997.47
2018-12-04T03:01:09.903Z,997.47
2018-12-04T03:02:09.902Z,997.49
2018-12-04T03:03:09.881Z,997.61
2018-12-04T03:04:09.863Z,997.65
2018-12-04T03:05:09.855Z,997.67
2018-12-04T03:06:09.842Z,997.84
2018-12-04T03:07:09.851Z,997.97
2018-12-04T03:08:09.825Z,998.08
2018-12-04T03:09:09.812Z,998.07
2018-12-04T03:10:09.809Z,998.07
2018-12-04T03:11:09.789Z,998.16
2018-12-04T03:12:09.799Z,998.11
2018-12-04T03:13:09.780Z,998.20
2018-12-04T03:14:09.766Z,998.21
2018-12-04T03:15:09.751Z,998.26
2018-12-04T03:16:09.747Z,998.24
2018-12-04T03:17:09.765Z,998.33
2018-12-04T03:18:09.720Z,998.35
2018-12-04T03:19:09.727Z,998.35
2018-12-04T03:20:09.700Z,998.39
2018-12-04T03:21:09.691Z,998.40
2018-12-04T03:22:09.673Z,998.44
2018-12-04T03:23:09.692Z,998.47
2018-12-04T03:24:09.659Z,998.50
2018-12-04T03:25:09.671Z,998.57
2018-12-04T03:26:09.643Z,998.57
2018-12-04T03:27:09.628Z,998.63
2018-12-04T03:28:09.631Z,998.71
2018-12-04T03:29:09.614Z,998.79
2018-12-04T03:30:09.595Z,998.70
2018-12-04T03:31:09.591Z,998.73
2018-12-04T03:32:09.584Z,998.85
2018-12-04T03:33:09.590Z,998.86
2018-12-04T03:34:09.559Z,998.86
2018-12-04T03:35:09.547Z,998.96
2018-12-04T03:36:09.533Z,998.94
2018-12-04T03:37:09.526Z,998.93
2018-12-04T03:38:09.528Z,998.96
2018-12-04T03:39:09.500Z,998.98
2018-12-04T03:40:09.502Z,999.00
2018-12-04T03:41:09.486Z,999.08
2018-12-04T03:42:09.474Z,999.09
2018-12-04T03:43:09.485Z,999.09
2018-12-04T03:44:09.458Z,999.11
2018-12-04T03:45:09.448Z,999.19
2018-12-04T03:46:09.440Z,999.21
2018-12-04T03:47:09.420Z,999.16
2018-12-04T03:48:09.453Z,999.21
2018-12-04T03:49:09.444Z,999.22
2018-12-04T03:50:09.394Z,999.28
2018-12-04T03:51:09.385Z,999.34
2018-12-04T03:52:09.383Z,999.31
2018-12-04T03:53:09.360Z,999.38
2018-12-04T03:54:09.368Z,999.36
2018-12-04T03:55:09.336Z,999.40
2018-12-04T03:56:09.328Z,999.46
2018-12-04T03:57:09.324Z,999.44
2018-12-04T03:58:09.328Z,999.51
2018-12-04T03:59:09.336Z,999.58
2018-12-04T04:00:09.289Z,999.66
2018-12-04T04:01:09.284Z,999.68
2018-12-04T04:02:09.267Z,999.64
2018-12-04T04:03:09.259Z,999.68
2018-12-04T04:04:09.257Z,999.78
2018-12-04T04:05:09.240Z,999.78
2018-12-04T04:06:09.229Z,999.83
2018-12-04T04:07:09.216Z,999.86
2018-12-04T04:08:09.211Z,999.92
2018-12-04T04:09:09.210Z,999.89
2018-12-04T04:10:09.184Z,999.87
2018-12-04T04:11:09.194Z,999.87
2018-12-04T04:12:09.164Z,999.89
2018-12-04T04:13:09.163Z,999.98
2018-12-04T04:14:09.157Z,999.96
2018-12-04T04:15:09.135Z,999.98
2018-12-04T04:16:17.093Z,1000.01
2018-12-04T04:17:09.117Z,1000.05
2018-12-04T04:18:09.103Z,1000.05
2018-12-04T04:19:09.109Z,1000.07
2018-12-04T04:20:09.084Z,1000.12
2018-12-04T04:21:09.074Z,1000.05
2018-12-04T04:22:09.068Z,1000.18
2018-12-04T04:23:09.054Z,1000.24
2018-12-04T04:24:09.073Z,1000.22
2018-12-04T04:25:09.035Z,1000.28
2018-12-04T04:26:09.030Z,1000.31
2018-12-04T04:27:09.019Z,1000.28
2018-12-04T04:28:09.008Z,1000.27
2018-12-04T04:29:08.997Z,1000.33
2018-12-04T04:30:09.024Z,1000.36
2018-12-04T04:31:08.970Z,1000.33
2018-12-04T04:32:08.963Z,1000.34
2018-12-04T04:33:08.953Z,1000.43
2018-12-04T04:34:08.952Z,1000.45
2018-12-04T04:35:08.949Z,1000.47
2018-12-04T04:36:08.922Z,1000.45
2018-12-04T04:37:08.911Z,1000.50
2018-12-04T04:38:08.901Z,1000.53
2018-12-04T04:39:08.893Z,1000.59
2018-12-04T04:40:08.889Z,1000.61
2018-12-04T04:41:08.871Z,1000.59
2018-12-04T04:42:08.859Z,1000.73
2018-12-04T04:43:08.855Z,1000.72
2018-12-04T04:44:08.838Z,1000.68
2018-12-04T04:45:08.844Z,1000.75
2018-12-04T04:46:08.815Z,1000.75
2018-12-04T04:47:08.805Z,1000.79
2018-12-04T04:48:08.799Z,1000.92
2018-12-04T04:49:08.788Z,1000.90
2018-12-04T04:50:08.794Z,1000.91
2018-12-04T04:51:08.763Z,1000.94
2018-12-04T04:52:08.757Z,1001.01
2018-12-04T04:53:08.744Z,1000.97
2018-12-04T04:54:08.735Z,1001.11
2018-12-04T04:55:08.746Z,1001.06
2018-12-04T04:56:08.710Z,1001.10
2018-12-04T04:57:08.705Z,1001.13
2018-12-04T04:58:08.693Z,1001.19
2018-12-04T04:59:08.687Z,1001.26
2018-12-04T05:00:08.682Z,1001.21
2018-12-04T05:01:08.663Z,1001.32
2018-12-04T05:02:08.653Z,1001.31
2018-12-04T05:03:08.651Z,1001.30
2018-12-04T05:04:08.632Z,1001.41
2018-12-04T05:05:08.658Z,1001.36
2018-12-04T05:06:08.614Z,1001.41
2018-12-04T05:07:08.602Z,1001.46
2018-12-04T05:08:08.592Z,1001.53
2018-12-04T05:09:08.664Z,1001.54
2018-12-04T05:10:08.573Z,1001.49
2018-12-04T05:11:08.573Z,1001.57
2018-12-04T05:12:08.555Z,1001.57
2018-12-04T05:13:08.537Z,1001.61
2018-12-04T05:14:08.531Z,1001.55
2018-12-04T05:15:08.523Z,1001.63
2018-12-04T05:16:08.513Z,1001.61
2018-12-04T05:17:08.497Z,1001.55
2018-12-04T05:18:08.484Z,1001.72
2018-12-04T05:19:08.484Z,1001.68
2018-12-04T05:20:08.478Z,1001.74
2018-12-04T05:21:09.016Z,1001.74
2018-12-04T05:22:08.454Z,1001.85
2018-12-04T05:23:08.437Z,1001.88
2018-12-04T05:24:08.426Z,1001.88
2018-12-04T05:25:08.418Z,1001.91
2018-12-04T05:26:08.420Z,1001.96
2018-12-04T05:27:08.392Z,1002.01
2018-12-04T05:28:08.384Z,1002.04
2018-12-04T05:29:08.369Z,1002.03
2018-12-04T05:30:08.361Z,1002.09
2018-12-04T05:31:08.364Z,1002.15
2018-12-04T05:32:08.340Z,1002.15
2018-12-04T05:33:08.338Z,1002.19
2018-12-04T05:34:08.316Z,1002.22
2018-12-04T05:35:08.315Z,1002.23
2018-12-04T05:36:08.309Z,1002.21
2018-12-04T05:37:08.292Z,1002.23
2018-12-04T05:38:08.274Z,1002.33
2018-12-04T05:39:08.265Z,1002.27
2018-12-04T05:40:08.259Z,1002.42
2018-12-04T05:41:08.254Z,1002.31
2018-12-04T05:42:08.235Z,1002.36
2018-12-04T05:43:08.225Z,1002.38
2018-12-04T05:44:08.211Z,1002.40
2018-12-04T05:45:08.207Z,1002.42
2018-12-04T05:46:08.226Z,1002.51
2018-12-04T05:47:08.188Z,1002.45
2018-12-04T05:48:08.171Z,1002.46
2018-12-04T05:49:08.161Z,1002.50
2018-12-04T05:50:08.154Z,1002.54
2018-12-04T05:51:08.141Z,1002.58
2018-12-04T05:52:08.174Z,1002.65
2018-12-04T05:53:08.124Z,1002.66
2018-12-04T05:54:08.118Z,1002.70
2018-12-04T05:55:08.098Z,1002.66
2018-12-04T05:56:08.088Z,1002.72
2018-12-04T05:57:08.103Z,1002.71
2018-12-04T05:58:08.105Z,1002.89
2018-12-04T05:59:08.111Z,1002.78
2018-12-04T06:00:08.049Z,1002.87
2018-12-04T06:01:08.040Z,1002.85
2018-12-04T06:02:08.048Z,1002.92
2018-12-04T06:03:08.019Z,1002.94
2018-12-04T06:04:08.006Z,1002.92
2018-12-04T06:05:08.004Z,1003.00
2018-12-04T06:06:07.989Z,1002.97
2018-12-04T06:07:08.013Z,1003.06
2018-12-04T06:08:07.968Z,1003.11
2018-12-04T06:09:08.014Z,1003.12
2018-12-04T06:10:07.949Z,1003.11
2018-12-04T06:11:07.945Z,1003.11
2018-12-04T06:12:07.930Z,1003.15
2018-12-04T06:13:07.913Z,1003.23
2018-12-04T06:14:07.913Z,1003.26
2018-12-04T06:15:07.893Z,1003.32
2018-12-04T06:16:07.896Z,1003.29
2018-12-04T06:17:07.896Z,1003.29
2018-12-04T06:18:07.868Z,1003.34
2018-12-04T06:19:07.855Z,1003.34
2018-12-04T06:20:07.849Z,1003.37
2018-12-04T06:21:07.837Z,1003.46
2018-12-04T06:22:07.844Z,1003.47
2018-12-04T06:23:07.813Z,1003.50
2018-12-04T06:24:07.809Z,1003.43
2018-12-04T06:25:07.789Z,1003.52
2018-12-04T06:26:07.781Z,1003.57
2018-12-04T06:27:07.784Z,1003.50
2018-12-04T06:28:07.762Z,1003.56
2018-12-04T06:29:07.749Z,1003.59
2018-12-04T06:30:07.736Z,1003.58
2018-12-04T06:31:07.726Z,1003.64
2018-12-04T06:32:07.753Z,1003.71
2018-12-04T06:33:07.709Z,1003.73
2018-12-04T06:34:07.702Z,1003.72
2018-12-04T06:35:07.688Z,1003.77
2018-12-04T06:36:07.675Z,1003.76
2018-12-04T06:37:07.676Z,1003.82
2018-12-04T06:38:07.654Z,1003.83
2018-12-04T06:39:07.680Z,1003.92
2018-12-04T06:40:07.696Z,1003.86
2018-12-04T06:41:07.630Z,1003.93
2018-12-04T06:42:07.649Z,1003.98
2018-12-04T06:43:07.602Z,1003.97
2018-12-04T06:44:07.593Z,1004.00
2018-12-04T06:45:07.580Z,1004.04
2018-12-04T06:46:07.575Z,1004.09
2018-12-04T06:47:07.558Z,1004.08
2018-12-04T06:48:07.573Z,1004.16
2018-12-04T06:49:07.546Z,1004.21
2018-12-04T06:50:07.535Z,1004.14
2018-12-04T06:51:07.519Z,1004.30
2018-12-04T06:52:07.515Z,1004.32
2018-12-04T06:53:07.510Z,1004.36
2018-12-04T06:54:07.489Z,1004.37
2018-12-04T06:55:07.474Z,1004.40
2018-12-04T06:56:07.461Z,1004.46
2018-12-04T06:57:07.455Z,1004.50
2018-12-04T06:58:07.460Z,1004.48
2018-12-04T06:59:07.441Z,1004.57
2018-12-04T07:00:07.427Z,1004.66
2018-12-04T07:01:07.414Z,1004.65
2018-12-04T07:02:07.417Z,1004.68
2018-12-04T07:03:07.408Z,1004.77
2018-12-04T07:04:07.393Z,1004.75
2018-12-04T07:05:07.410Z,1004.79
2018-12-04T07:06:07.390Z,1004.82
2018-12-04T07:07:07.352Z,1004.84
2018-12-04T07:08:07.361Z,1004.90
2018-12-04T07:09:07.334Z,1004.97
2018-12-04T07:10:07.342Z,1004.98
2018-12-04T07:11:07.309Z,1005.03
2018-12-04T07:12:07.298Z,1005.03
2018-12-04T07:13:07.305Z,1005.04
2018-12-04T07:14:07.282Z,1005.05
2018-12-04T07:15:07.269Z,1005.08
2018-12-04T07:16:07.272Z,1005.17
2018-12-04T07:17:07.327Z,1005.17
2018-12-04T07:18:07.260Z,1005.18
2018-12-04T07:19:07.230Z,1005.18
2018-12-04T07:20:07.214Z,1005.22
2018-12-04T07:21:07.209Z,1005.22
2018-12-04T07:22:07.197Z,1005.26
2018-12-04T07:23:07.195Z,1005.28
2018-12-04T07:24:07.177Z,1005.27
2018-12-04T07:25:07.164Z,1005.30
2018-12-04T07:26:07.167Z,1005.35
2018-12-04T07:27:07.152Z,1005.34
2018-12-04T07:28:07.150Z,1005.39
2018-12-04T07:29:07.129Z,1005.43
2018-12-04T07:30:07.115Z,1005.47
2018-12-04T07:31:07.099Z,1005.47
2018-12-04T07:32:07.093Z,1005.51
2018-12-04T07:33:07.102Z,1005.52
2018-12-04T07:34:07.074Z,1005.50
2018-12-04T07:35:07.065Z,1005.59
2018-12-04T07:36:07.049Z,1005.62
2018-12-04T07:37:07.037Z,1005.65
2018-12-04T07:38:07.075Z,1005.67
2018-12-04T07:39:07.020Z,1005.70
2018-12-04T07:40:07.006Z,1005.74
2018-12-04T07:41:07.002Z,1005.69
2018-12-04T07:42:06.990Z,1005.83
2018-12-04T07:43:06.980Z,1005.82
2018-12-04T07:44:06.982Z,1005.86
2018-12-04T07:45:06.964Z,1005.92
2018-12-04T07:46:06.945Z,1005.92
2018-12-04T07:47:06.940Z,1005.86
2018-12-04T07:48:06.922Z,1005.96
2018-12-04T07:49:06.933Z,1005.97
2018-12-04T07:50:06.911Z,1006.02
2018-12-04T07:51:06.919Z,1006.02
2018-12-04T07:52:06.910Z,1006.06
2018-12-04T07:53:06.892Z,1006.14
2018-12-04T07:54:06.879Z,1006.16
2018-12-04T07:55:06.858Z,1006.17
2018-12-04T07:56:06.850Z,1006.17
2018-12-04T07:57:06.837Z,1006.28
2018-12-04T07:58:06.819Z,1006.24
2018-12-04T07:59:06.827Z,1006.28
2018-12-04T08:00:06.806Z,1006.31
2018-12-04T08:01:06.798Z,1006.36
2018-12-04T08:02:06.780Z,1006.37
2018-12-04T08:03:06.776Z,1006.39
2018-12-04T08:04:06.783Z,1006.37
2018-12-04T08:05:06.754Z,1006.44
2018-12-04T08:06:06.744Z,1006.48
2018-12-04T08:07:06.736Z,1006.45
2018-12-04T08:08:06.725Z,1006.52
2018-12-04T08:09:06.731Z,1006.54
2018-12-04T08:10:06.707Z,1006.61
2018-12-04T08:11:06.695Z,1006.59
2018-12-04T08:12:06.685Z,1006.68
2018-12-04T08:13:06.669Z,1006.69
2018-12-04T08:14:06.683Z,1006.68
2018-12-04T08:15:06.653Z,1006.76
2018-12-04T08:16:06.638Z,1006.72
2018-12-04T08:17:06.633Z,1006.75
2018-12-04T08:18:06.619Z,1006.74
2018-12-04T08:19:06.642Z,1006.75
2018-12-04T08:20:06.619Z,1006.80
2018-12-04T08:21:06.588Z,1006.85
2018-12-04T08:22:06.576Z,1006.74
2018-12-04T08:23:06.578Z,1006.81
2018-12-04T08:24:06.563Z,1006.83
2018-12-04T08:25:06.587Z,1006.85
2018-12-04T08:26:06.543Z,1006.89
2018-12-04T08:27:06.536Z,1006.91
2018-12-04T08:28:06.519Z,1006.98
2018-12-04T08:29:06.508Z,1006.98
2018-12-04T08:30:06.510Z,1006.96
2018-12-04T08:31:06.488Z,1007.04
2018-12-04T08:32:06.473Z,1007.03
2018-12-04T08:33:06.463Z,1007.02
2018-12-04T08:34:06.467Z,1007.04
2018-12-04T08:35:06.471Z,1007.07
2018-12-04T08:36:06.430Z,1007.08
2018-12-04T08:37:06.420Z,1007.08
2018-12-04T08:38:06.411Z,1007.10
2018-12-04T08:39:06.403Z,1007.18
2018-12-04T08:40:06.671Z,1007.18
2018-12-04T08:41:06.375Z,1007.24
2018-12-04T08:42:06.372Z,1007.26
2018-12-04T08:43:06.391Z,1007.23
2018-12-04T08:44:06.356Z,1007.30
2018-12-04T08:45:06.382Z,1007.32
2018-12-04T08:46:06.331Z,1007.39
2018-12-04T08:47:06.315Z,1007.34
2018-12-04T08:48:06.313Z,1007.40
2018-12-04T08:49:06.298Z,1007.42
2018-12-04T08:50:06.293Z,1007.45
2018-12-04T08:51:06.279Z,1007.51
2018-12-04T08:52:06.267Z,1007.55
2018-12-04T08:53:06.253Z,1007.58
2018-12-04T08:54:06.290Z,1007.57
2018-12-04T08:55:06.247Z,1007.67
2018-12-04T08:56:06.225Z,1007.60
2018-12-04T08:57:06.217Z,1007.65
2018-12-04T08:58:06.207Z,1007.62
2018-12-04T08:59:06.195Z,1007.68
2018-12-04T09:00:06.194Z,1007.69
2018-12-04T09:01:06.174Z,1007.72
2018-12-04T09:02:06.172Z,1007.73
2018-12-04T09:03:06.171Z,1007.76
2018-12-04T09:04:06.148Z,1007.80
2018-12-04T09:05:06.200Z,1007.83
2018-12-04T09:06:06.122Z,1007.81
2018-12-04T09:07:06.591Z,1007.81
2018-12-04T09:08:09.338Z,1007.97
2018-12-04T09:09:06.093Z,1007.89
2018-12-04T09:10:06.086Z,1007.99
2018-12-04T09:11:06.087Z,1007.92
2018-12-04T09:12:06.066Z,1008.06
2018-12-04T09:13:06.049Z,1007.96
2018-12-04T09:14:06.121Z,1008.04
2018-12-04T09:15:06.035Z,1008.09
2018-12-04T09:16:06.037Z,1008.18
2018-12-04T09:17:06.032Z,1008.16
2018-12-04T09:18:06.029Z,1008.18
2018-12-04T09:19:06.020Z,1008.27
2018-12-04T09:20:05.987Z,1008.25
2018-12-04T09:21:06.001Z,1008.23
2018-12-04T09:22:06.013Z,1008.31
2018-12-04T09:23:06.012Z,1008.26
2018-12-04T09:24:05.961Z,1008.29
2018-12-04T09:25:05.925Z,1008.30
2018-12-04T09:26:05.969Z,1008.41
2018-12-04T09:27:06.045Z,1008.36
2018-12-04T09:28:05.930Z,1008.33
2018-12-04T09:29:05.911Z,1008.38
2018-12-04T09:30:05.877Z,1008.43
2018-12-04T09:31:05.891Z,1008.43
2018-12-04T09:32:05.857Z,1008.40
2018-12-04T09:33:05.843Z,1008.46
2018-12-04T09:34:05.840Z,1008.54
2018-12-04T09:35:05.823Z,1008.53
2018-12-04T09:36:05.836Z,1008.51
2018-12-04T09:37:05.802Z,1008.52
2018-12-04T09:38:05.791Z,1008.59
2018-12-04T09:39:05.779Z,1008.64
2018-12-04T09:40:05.771Z,1008.64
2018-12-04T09:41:05.780Z,1008.64
2018-12-04T09:42:05.752Z,1008.67
2018-12-04T09:43:05.744Z,1008.70
2018-12-04T09:44:05.733Z,1008.71
2018-12-04T09:45:05.729Z,1008.69
2018-12-04T09:46:05.726Z,1008.73
2018-12-04T09:47:05.701Z,1008.71
2018-12-04T09:48:05.689Z,1008.72
2018-12-04T09:49:05.678Z,1008.70
2018-12-04T09:50:05.667Z,1008.69
2018-12-04T09:51:05.669Z,1008.66
2018-12-04T09:52:05.647Z,1008.66
2018-12-04T09:53:05.641Z,1008.64
2018-12-04T09:54:05.626Z,1008.66
2018-12-04T09:55:05.619Z,1008.71
2018-12-04T09:56:05.636Z,1008.75
2018-12-04T09:57:05.598Z,1008.73
2018-12-04T09:58:05.586Z,1008.78
2018-12-04T09:59:05.655Z,1008.74
2018-12-04T10:00:05.568Z,1008.83
2018-12-04T10:01:05.553Z,1008.79
2018-12-04T10:02:05.562Z,1008.88
2018-12-04T10:03:05.536Z,1008.82
2018-12-04T10:04:05.522Z,1008.85
2018-12-04T10:05:05.514Z,1008.82
2018-12-04T10:06:05.505Z,1008.85
2018-12-04T10:07:05.503Z,1008.93
2018-12-04T10:08:05.489Z,1008.89
2018-12-04T10:09:05.475Z,1008.89
2018-12-04T10:10:05.462Z,1008.85
2018-12-04T10:11:05.457Z,1008.88
2018-12-04T10:12:05.467Z,1008.97
2018-12-04T10:13:05.476Z,1008.95
2018-12-04T10:14:05.418Z,1009.00
2018-12-04T10:15:05.413Z,1008.99
2018-12-04T10:16:05.397Z,1009.01
2018-12-04T10:17:05.408Z,1009.01
2018-12-04T10:18:05.383Z,1009.02
2018-12-04T10:19:05.366Z,1009.04
2018-12-04T10:20:05.358Z,1009.06
2018-12-04T10:21:05.350Z,1009.05
2018-12-04T10:22:05.351Z,1009.03
2018-12-04T10:23:05.330Z,1009.03
2018-12-04T10:24:05.320Z,1009.13
2018-12-04T10:25:05.305Z,1009.08
2018-12-04T10:26:05.296Z,1009.07
2018-12-04T10:27:05.304Z,1009.11
2018-12-04T10:28:05.279Z,1009.20
2018-12-04T10:29:05.268Z,1009.15
2018-12-04T10:30:05.256Z,1009.18
2018-12-04T10:31:05.245Z,1009.25
2018-12-04T10:32:05.248Z,1009.32
2018-12-04T10:33:05.231Z,1009.30
2018-12-04T10:34:05.217Z,1009.25
2018-12-04T10:35:05.212Z,1009.29
2018-12-04T10:36:05.194Z,1009.30
2018-12-04T10:37:05.198Z,1009.33
2018-12-04T10:38:05.172Z,1009.41
2018-12-04T10:39:05.182Z,1009.38
2018-12-04T10:40:05.151Z,1009.38
2018-12-04T10:41:05.143Z,1009.39
2018-12-04T10:42:05.153Z,1009.46
2018-12-04T10:43:05.124Z,1009.45
2018-12-04T10:44:05.114Z,1009.42
2018-12-04T10:45:05.106Z,1009.51
2018-12-04T10:46:05.097Z,1009.50
2018-12-04T10:47:05.116Z,1009.43
2018-12-04T10:48:05.075Z,1009.45
2018-12-04T10:49:05.060Z,1009.52
2018-12-04T10:50:05.050Z,1009.57
2018-12-04T10:51:05.052Z,1009.55
2018-12-04T10:52:05.043Z,1009.52
2018-12-04T10:53:05.023Z,1009.58
2018-12-04T10:54:05.006Z,1009.52
2018-12-04T10:55:05.002Z,1009.52
2018-12-04T10:56:04.990Z,1009.49
2018-12-04T10:57:09.818Z,1009.58
2018-12-04T10:58:05.964Z,1009.58
2018-12-04T10:59:04.961Z,1009.51
2018-12-04T11:00:05.995Z,1009.56
2018-12-04T11:01:04.946Z,1009.59
2018-12-04T11:02:04.950Z,1009.60
2018-12-04T11:03:04.913Z,1009.57
2018-12-04T11:04:04.904Z,1009.60
2018-12-04T11:05:04.893Z,1009.69
2018-12-04T11:06:04.884Z,1009.64
2018-12-04T11:07:04.871Z,1009.68
2018-12-04T11:08:04.879Z,1009.71
2018-12-04T11:09:04.856Z,1009.70
2018-12-04T11:10:04.844Z,1009.71
2018-12-04T11:11:04.838Z,1009.75
2018-12-04T11:12:04.821Z,1009.77
2018-12-04T11:13:04.822Z,1009.77
2018-12-04T11:14:04.801Z,1009.85
2018-12-04T11:15:04.791Z,1009.85
2018-12-04T11:16:04.780Z,1009.81
2018-12-04T11:17:04.770Z,1009.86
2018-12-04T11:18:04.776Z,1009.89
2018-12-04T11:19:04.749Z,1009.92
2018-12-04T11:20:04.738Z,1009.96
2018-12-04T11:21:04.726Z,1009.93
2018-12-04T11:22:04.715Z,1009.92
2018-12-04T11:23:04.722Z,1009.92
2018-12-04T11:24:04.693Z,1009.94
2018-12-04T11:25:04.692Z,1009.88
2018-12-04T11:26:04.671Z,1009.96
2018-12-04T11:27:04.666Z,1009.96
2018-12-04T11:28:04.676Z,1009.92
2018-12-04T11:29:04.639Z,1010.03
2018-12-04T11:30:04.636Z,1010.06
2018-12-04T11:31:04.623Z,1010.05
2018-12-04T11:32:04.610Z,1010.05
2018-12-04T11:33:04.617Z,1010.10
2018-12-04T11:34:04.595Z,1009.99
2018-12-04T11:35:04.582Z,1010.02
2018-12-04T11:36:04.580Z,1010.10
2018-12-04T11:37:04.561Z,1010.11
2018-12-04T11:38:04.567Z,1010.05
2018-12-04T11:39:04.539Z,1010.11
2018-12-04T11:40:04.529Z,1010.10
2018-12-04T11:41:04.521Z,1010.17
2018-12-04T11:42:04.523Z,1010.19
2018-12-04T11:43:04.517Z,1010.19
2018-12-04T11:44:04.489Z,1010.22
2018-12-04T11:45:04.480Z,1010.27
2018-12-04T11:46:04.466Z,1010.26
2018-12-04T11:47:04.456Z,1010.33
2018-12-04T11:48:04.460Z,1010.28
2018-12-04T11:49:04.437Z,1010.34
2018-12-04T11:50:04.427Z,1010.34
2018-12-04T11:51:04.426Z,1010.42
2018-12-04T11:52:04.407Z,1010.37
2018-12-04T11:53:04.416Z,1010.34
2018-12-04T11:54:04.388Z,1010.40
2018-12-04T11:55:04.374Z,1010.43
2018-12-04T11:56:04.362Z,1010.46
2018-12-04T11:57:04.358Z,1010.54
2018-12-04T11:58:04.353Z,1010.54
2018-12-04T11:59:04.350Z,1010.49
2018-12-04T12:00:04.334Z,1010.53
2018-12-04T12:01:04.314Z,1010.54
2018-12-04T12:02:04.314Z,1010.58
2018-12-04T12:03:04.292Z,1010.58
2018-12-04T12:04:04.628Z,1010.55
2018-12-04T12:05:04.267Z,1010.60
2018-12-04T12:06:12.265Z,1010.64
2018-12-04T12:07:04.266Z,1010.63
2018-12-04T12:08:04.247Z,1010.57
2018-12-04T12:09:04.249Z,1010.63
2018-12-04T12:10:04.220Z,1010.70
2018-12-04T12:11:04.214Z,1010.78
2018-12-04T12:12:04.210Z,1010.69
2018-12-04T12:13:04.192Z,1010.77